Time;durP1;ratioP1;P1;durP2;ratioP2;P2;SDS_P1;SDS_P2;PMS_P1;PMS_P2;Temp;Humidity;BMP_temperature;BMP_pressure;BME280_temperature;BME280_humidity;BME280_pressure;Samples;Min_cycle;Max_cycle;Signal;HPM_P1;HPM_P2
2022/03/06 00:01:28;;;;;;;58.72;34.28;;;3.90;1.00;;;;;;5026863;28;20049;-76
2022/03/06 00:03:57;;;;;;;57.33;34.05;;;4.00;1.00;;;;;;5021001;28;20496;-79
2022/03/06 00:06:25;;;;;;;73.95;41.38;;;4.00;1.00;;;;;;5033781;28;20046;-80
2022/03/06 00:08:53;;;;;;;77.53;43.15;;;4.00;1.00;;;;;;5021345;28;20169;-78
2022/03/06 00:11:20;;;;;;;75.68;43.22;;;4.00;1.00;;;;;;5021074;28;20054;-77
2022/03/06 00:13:48;;;;;;;69.75;41.30;;;4.00;1.00;;;;;;5020718;28;20049;-78
2022/03/06 00:16:16;;;;;;;74.55;43.08;;;4.00;1.00;;;;;;5019513;28;20041;-77
2022/03/06 00:18:44;;;;;;;86.45;46.95;;;4.00;1.00;;;;;;5037170;28;20051;-79
2022/03/06 00:21:15;;;;;;;73.97;42.95;;;4.00;1.00;;;;;;5035648;28;20132;-79
2022/03/06 00:23:42;;;;;;;73.45;43.22;;;4.00;1.00;;;;;;5038113;28;20076;-78
2022/03/06 00:26:10;;;;;;;73.10;43.17;;;4.10;1.00;;;;;;5039402;28;20044;-79
2022/03/06 00:28:38;;;;;;;62.72;36.58;;;4.10;1.00;;;;;;5023215;28;20041;-79
2022/03/06 00:31:07;;;;;;;58.42;33.85;;;4.10;1.00;;;;;;5026900;28;20077;-79
2022/03/06 00:33:35;;;;;;;60.67;34.92;;;4.00;1.00;;;;;;5025820;28;20075;-78
2022/03/06 00:36:03;;;;;;;57.38;34.42;;;4.00;1.00;;;;;;5023341;28;20472;-79
2022/03/06 00:38:31;;;;;;;56.38;34.55;;;3.90;1.00;;;;;;5039694;28;20046;-79
2022/03/06 00:40:59;;;;;;;58.78;33.05;;;3.90;1.00;;;;;;5038187;28;20052;-79
2022/03/06 00:43:27;;;;;;;54.45;31.60;;;3.70;1.00;;;;;;5038125;28;20045;-79
2022/03/06 00:45:54;;;;;;;53.63;32.22;;;3.70;1.00;;;;;;5037118;28;20113;-79
2022/03/06 00:48:22;;;;;;;55.72;32.50;;;3.60;1.00;;;;;;5037695;28;20115;-79
2022/03/06 00:50:50;;;;;;;53.55;32.30;;;3.40;1.00;;;;;;5038543;28;20049;-78
2022/03/06 00:53:18;;;;;;;52.72;32.30;;;3.40;1.00;;;;;;5021370;28;20053;-79
2022/03/06 00:55:50;;;;;;;53.28;31.95;;;3.30;1.00;;;;;;5028034;28;20488;-77
2022/03/06 00:58:19;;;;;;;58.80;34.85;;;3.20;1.00;;;;;;5029485;28;20059;-79
2022/03/06 01:00:48;;;;;;;58.40;33.65;;;3.10;1.00;;;;;;5038534;28;20137;-78
2022/03/06 01:03:18;;;;;;;57.35;33.38;;;3.00;1.00;;;;;;5038077;28;20389;-78
2022/03/06 01:05:47;;;;;;;57.03;34.00;;;3.00;1.00;;;;;;5040105;28;20168;-79
2022/03/06 01:08:15;;;;;;;60.17;35.13;;;3.00;26.80;;;;;;5038974;28;20091;-77
2022/03/06 01:10:45;;;;;;;56.05;33.58;;;3.00;99.90;;;;;;5037653;28;20065;-77
2022/03/06 01:13:15;;;;;;;61.55;36.47;;;3.00;1.00;;;;;;5038180;28;20046;-78
2022/03/06 01:15:43;;;;;;;60.10;34.80;;;3.00;1.00;;;;;;5037667;28;20095;-78
2022/03/06 01:18:11;;;;;;;56.30;34.10;;;2.80;24.70;;;;;;5022580;28;20505;-78
2022/03/06 01:20:39;;;;;;;61.05;35.75;;;2.80;1.00;;;;;;5044449;28;20053;-79
2022/03/06 01:23:08;;;;;;;59.03;34.45;;;2.80;1.00;;;;;;5045287;28;20103;-78
2022/03/06 01:25:36;;;;;;;56.22;33.50;;;2.70;99.90;;;;;;5043485;28;20042;-78
2022/03/06 01:28:04;;;;;;;57.03;33.05;;;2.70;99.90;;;;;;5041261;28;20052;-78
2022/03/06 01:30:34;;;;;;;53.90;32.75;;;2.70;99.90;;;;;;5047220;28;20038;-78
2022/03/06 01:33:02;;;;;;;52.20;31.85;;;2.70;99.90;;;;;;5044102;28;20088;-78
2022/03/06 01:35:29;;;;;;;51.75;31.70;;;2.70;99.90;;;;;;5038754;28;20503;-79
2022/03/06 01:37:57;;;;;;;52.47;30.05;;;2.70;99.90;;;;;;5023073;28;20042;-79
2022/03/06 01:40:25;;;;;;;50.00;30.45;;;2.60;99.90;;;;;;5039062;28;20069;-78
2022/03/06 01:42:52;;;;;;;51.35;30.27;;;2.60;99.90;;;;;;5038037;28;20044;-79
2022/03/06 01:45:22;;;;;;;49.80;29.00;;;2.60;1.00;;;;;;5037906;28;20496;-79
2022/03/06 01:47:53;;;;;;;50.90;29.13;;;2.40;1.00;;;;;;5037735;28;20056;-78
2022/03/06 01:50:22;;;;;;;49.53;29.05;;;2.40;1.00;;;;;;5038387;28;20107;-79
2022/03/06 01:52:51;;;;;;;49.05;27.48;;;2.30;1.00;;;;;;5038140;28;20401;-80
2022/03/06 01:55:22;;;;;;;49.47;27.10;;;2.30;1.00;;;;;;5037457;28;20404;-78
2022/03/06 01:57:52;;;;;;;43.55;26.80;;;2.30;1.00;;;;;;5037697;28;20099;-79
2022/03/06 02:00:22;;;;;;;44.28;26.40;;;2.30;1.00;;;;;;5037796;28;20043;-79
2022/03/06 02:02:51;;;;;;;44.38;26.15;;;2.20;1.00;;;;;;5037702;28;20441;-78
2022/03/06 02:05:19;;;;;;;44.78;25.27;;;2.20;1.00;;;;;;5037307;28;20120;-78
2022/03/06 02:07:47;;;;;;;42.80;26.45;;;2.20;1.00;;;;;;5037967;28;20046;-77
2022/03/06 02:10:15;;;;;;;46.08;26.85;;;2.20;1.00;;;;;;5038616;28;20037;-79
2022/03/06 02:12:43;;;;;;;41.25;26.52;;;2.20;1.00;;;;;;5039088;28;20492;-78
2022/03/06 02:15:13;;;;;;;45.03;26.65;;;2.20;15.70;;;;;;5046997;28;20045;-80
2022/03/06 02:17:41;;;;;;;44.42;26.67;;;2.20;93.10;;;;;;5042031;28;20044;-77
2022/03/06 02:20:13;;;;;;;43.47;25.63;;;2.10;99.90;;;;;;5049736;28;20104;-77
2022/03/06 02:22:44;;;;;;;40.88;24.92;;;2.20;99.90;;;;;;5047452;28;20069;-80
2022/03/06 02:25:14;;;;;;;43.33;25.38;;;2.10;99.90;;;;;;5054790;28;20120;-79
2022/03/06 02:27:42;;;;;;;40.95;24.65;;;2.00;99.90;;;;;;5050196;28;20041;-78
2022/03/06 02:30:12;;;;;;;38.95;24.75;;;2.00;99.90;;;;;;5037129;28;20139;-78
2022/03/06 02:32:41;;;;;;;42.55;26.63;;;1.90;99.90;;;;;;5019357;28;20049;-79
2022/03/06 02:35:09;;;;;;;46.15;26.25;;;1.80;99.90;;;;;;5018785;28;20077;-78
2022/03/06 02:37:38;;;;;;;44.50;25.17;;;1.80;1.00;;;;;;5036507;28;20420;-79
2022/03/06 02:40:10;;;;;;;42.75;27.35;;;1.80;1.00;;;;;;5019097;28;20080;-80
2022/03/06 02:42:40;;;;;;;47.47;27.63;;;1.70;1.00;;;;;;5036222;28;20144;-78
2022/03/06 02:45:10;;;;;;;47.70;28.10;;;1.70;1.00;;;;;;5018182;28;20052;-78
2022/03/06 02:47:38;;;;;;;47.95;28.90;;;1.60;1.00;;;;;;5037497;28;20045;-80
2022/03/06 02:50:08;;;;;;;48.85;28.25;;;1.60;1.00;;;;;;5038445;28;20049;-79
2022/03/06 02:52:36;;;;;;;45.72;28.55;;;1.60;1.00;;;;;;5036984;28;20049;-79
2022/03/06 02:55:08;;;;;;;47.67;28.92;;;1.60;16.80;;;;;;5037825;28;20041;-78
2022/03/06 02:57:35;;;;;;;40.63;27.00;;;1.60;99.90;;;;;;5039738;28;20467;-79
2022/03/06 03:00:04;;;;;;;46.03;27.77;;;1.60;99.90;;;;;;5029011;28;20060;-79
2022/03/06 03:02:32;;;;;;;42.33;27.05;;;1.60;99.90;;;;;;5040682;28;20057;-78
2022/03/06 03:05:01;;;;;;;42.00;26.15;;;1.60;99.90;;;;;;5021547;28;20049;-77
2022/03/06 03:07:28;;;;;;;44.13;27.95;;;1.50;99.90;;;;;;5018916;28;20374;-77
2022/03/06 03:09:56;;;;;;;45.88;27.63;;;1.40;1.00;;;;;;5017334;28;20045;-76
2022/03/06 03:12:25;;;;;;;46.08;28.88;;;1.50;1.00;;;;;;5034865;28;20045;-76
2022/03/06 03:14:53;;;;;;;41.53;26.63;;;1.50;1.00;;;;;;5036448;28;20044;-79
2022/03/06 03:17:20;;;;;;;40.15;25.63;;;1.50;1.00;;;;;;5036995;28;20108;-79
2022/03/06 03:19:49;;;;;;;42.03;27.02;;;1.50;99.90;;;;;;5018212;28;20053;-78
2022/03/06 03:22:17;;;;;;;41.03;26.35;;;1.60;1.00;;;;;;5019024;28;20038;-79
2022/03/06 03:24:45;;;;;;;38.65;25.92;;;1.60;99.90;;;;;;5036114;28;20061;-79
2022/03/06 03:27:12;;;;;;;39.58;26.60;;;1.60;99.90;;;;;;5036576;28;20037;-78
2022/03/06 03:29:41;;;;;;;38.00;25.52;;;1.60;99.90;;;;;;5018744;28;20042;-79
2022/03/06 03:32:09;;;;;;;41.30;25.20;;;1.60;1.00;;;;;;5035570;28;20500;-78
2022/03/06 03:34:37;;;;;;;41.10;27.00;;;1.60;77.70;;;;;;5017613;28;20060;-78
2022/03/06 03:37:05;;;;;;;43.13;27.77;;;1.50;99.90;;;;;;5017974;28;20029;-78
2022/03/06 03:39:33;;;;;;;42.00;27.58;;;1.40;99.90;;;;;;5035323;28;20045;-78
2022/03/06 03:42:00;;;;;;;42.67;26.77;;;1.40;1.00;;;;;;5017813;28;20049;-78
2022/03/06 03:44:28;;;;;;;43.38;27.88;;;1.30;1.00;;;;;;5035360;28;20121;-79
2022/03/06 03:46:58;;;;;;;41.13;26.13;;;1.30;1.00;;;;;;5041782;28;20041;-78
2022/03/06 03:49:28;;;;;;;44.47;27.95;;;1.40;51.50;;;;;;5042109;28;20048;-78
2022/03/06 03:51:55;;;;;;;41.28;27.30;;;1.40;99.90;;;;;;5039287;28;20052;-77
2022/03/06 03:54:23;;;;;;;46.13;28.50;;;1.40;99.90;;;;;;5037940;28;20041;-79
2022/03/06 03:56:50;;;;;;;52.00;32.08;;;1.40;99.90;;;;;;5023095;28;20045;-79
2022/03/06 03:59:18;;;;;;;55.05;34.47;;;1.30;99.90;;;;;;5039620;28;20050;-77
2022/03/06 04:01:46;;;;;;;60.22;34.63;;;1.20;99.90;;;;;;5039367;28;20048;-78
2022/03/06 04:04:15;;;;;;;58.38;36.33;;;1.20;99.90;;;;;;5039199;28;20048;-79
2022/03/06 04:06:42;;;;;;;70.85;39.90;;;1.20;99.90;;;;;;5039181;28;20710;-78
2022/03/06 04:09:10;;;;;;;82.32;49.13;;;1.30;99.90;;;;;;5026019;28;20041;-78
2022/03/06 04:11:37;;;;;;;65.43;39.40;;;1.20;99.90;;;;;;5028964;28;20045;-78
2022/03/06 04:14:05;;;;;;;62.72;37.95;;;1.30;99.90;;;;;;5029700;28;20063;-78
2022/03/06 04:16:32;;;;;;;59.13;35.17;;;1.30;99.90;;;;;;5026077;28;20087;-78
2022/03/06 04:19:00;;;;;;;58.45;35.88;;;1.30;99.90;;;;;;5032960;28;20103;-78
2022/03/06 04:21:29;;;;;;;59.80;38.10;;;1.30;99.90;;;;;;5039208;28;20049;-79
2022/03/06 04:23:57;;;;;;;56.15;36.03;;;1.30;99.90;;;;;;5038730;28;20052;-79
2022/03/06 04:26:25;;;;;;;56.00;34.92;;;1.30;99.90;;;;;;5039417;28;20065;-77
2022/03/06 04:28:52;;;;;;;60.65;36.42;;;1.30;99.90;;;;;;5042275;28;20060;-78
2022/03/06 04:31:20;;;;;;;42.45;27.95;;;1.20;99.90;;;;;;5043242;28;20052;-78
2022/03/06 04:33:47;;;;;;;51.90;32.38;;;1.20;99.90;;;;;;5041389;28;20471;-79
2022/03/06 04:36:15;;;;;;;50.03;32.80;;;1.20;99.90;;;;;;5022555;28;20048;-78
2022/03/06 04:38:46;;;;;;;52.92;32.97;;;1.10;99.90;;;;;;5039231;28;20064;-78
2022/03/06 04:41:13;;;;;;;44.22;29.55;;;1.10;99.90;;;;;;5038554;28;20037;-78
2022/03/06 04:43:41;;;;;;;47.03;29.83;;;1.10;99.90;;;;;;5038939;28;20048;-79
2022/03/06 04:46:08;;;;;;;44.05;29.05;;;1.10;99.90;;;;;;5020938;28;20050;-78
2022/03/06 04:48:36;;;;;;;43.67;28.10;;;1.20;99.90;;;;;;5038305;28;20049;-79
2022/03/06 04:51:04;;;;;;;38.97;26.13;;;1.10;99.90;;;;;;5042845;28;20095;-78
2022/03/06 04:53:32;;;;;;;41.63;27.85;;;1.10;99.90;;;;;;5024098;28;20076;-78
2022/03/06 04:56:05;;;;;;;48.83;31.33;;;1.10;99.90;;;;;;5028134;28;20083;-77
2022/03/06 04:58:32;;;;;;;41.80;28.65;;;1.10;99.90;;;;;;5033225;28;20060;-77
2022/03/06 05:01:00;;;;;;;43.83;29.08;;;1.00;99.90;;;;;;5048777;28;20456;-77
2022/03/06 05:03:28;;;;;;;45.63;28.33;;;1.10;99.90;;;;;;5039368;28;20064;-78
2022/03/06 05:05:56;;;;;;;37.97;26.48;;;1.10;99.90;;;;;;5037349;28;20041;-78
2022/03/06 05:08:26;;;;;;;39.22;27.10;;;1.10;99.90;;;;;;5037791;28;20087;-76
2022/03/06 05:10:54;;;;;;;38.45;26.88;;;1.10;99.90;;;;;;5037003;28;20064;-79
2022/03/06 05:13:24;;;;;;;35.55;25.23;;;1.20;99.90;;;;;;5019842;28;20121;-78
2022/03/06 05:15:52;;;;;;;36.22;25.38;;;1.20;99.90;;;;;;5020417;28;20053;-78
2022/03/06 05:18:19;;;;;;;37.80;25.52;;;1.20;99.90;;;;;;5036837;28;20045;-78
2022/03/06 05:20:49;;;;;;;38.78;26.38;;;1.20;99.90;;;;;;5045038;28;20045;-78
2022/03/06 05:23:17;;;;;;;36.95;25.98;;;1.20;99.90;;;;;;5042938;28;20495;-79
2022/03/06 05:25:45;;;;;;;39.90;27.88;;;1.20;99.90;;;;;;5047955;28;20393;-78
2022/03/06 05:28:12;;;;;;;37.50;26.83;;;1.20;99.90;;;;;;5038767;28;20040;-78
2022/03/06 05:30:42;;;;;;;39.60;26.90;;;1.20;99.90;;;;;;5056663;28;20102;-77
2022/03/06 05:33:09;;;;;;;40.13;27.25;;;1.30;99.90;;;;;;5055567;28;20133;-78
2022/03/06 05:35:37;;;;;;;40.13;27.10;;;1.30;99.90;;;;;;5059127;28;20041;-77
2022/03/06 05:38:05;;;;;;;42.75;30.00;;;1.30;99.90;;;;;;5023405;28;20050;-78
2022/03/06 05:40:32;;;;;;;43.65;28.65;;;1.40;99.90;;;;;;5038046;28;20037;-78
2022/03/06 05:43:00;;;;;;;44.20;28.52;;;1.40;99.90;;;;;;5021887;28;20057;-77
2022/03/06 05:45:28;;;;;;;42.72;28.17;;;1.50;99.90;;;;;;5042047;28;20113;-76
2022/03/06 05:47:57;;;;;;;46.40;31.73;;;1.40;99.90;;;;;;5040900;28;20037;-77
2022/03/06 05:50:25;;;;;;;50.35;32.38;;;1.40;99.90;;;;;;5041652;28;20041;-77
2022/03/06 05:52:53;;;;;;;50.90;33.15;;;1.40;99.90;;;;;;5039702;28;20050;-76
2022/03/06 05:55:23;;;;;;;54.72;35.50;;;1.50;99.90;;;;;;5041208;28;20041;-79
2022/03/06 05:57:51;;;;;;;60.28;37.97;;;1.50;99.90;;;;;;5041675;28;20169;-77
2022/03/06 06:00:20;;;;;;;56.90;36.17;;;1.50;99.90;;;;;;5039377;28;20051;-78
2022/03/06 06:02:47;;;;;;;61.97;36.33;;;1.50;99.90;;;;;;5016432;28;20100;-78
2022/03/06 06:05:16;;;;;;;62.47;41.03;;;1.50;99.90;;;;;;5037474;28;20056;-76
2022/03/06 06:07:44;;;;;;;55.53;36.25;;;1.50;99.90;;;;;;5039959;28;20042;-78
2022/03/06 06:10:13;;;;;;;60.20;37.95;;;1.50;99.90;;;;;;5040313;28;20037;-78
2022/03/06 06:12:40;;;;;;;61.40;38.58;;;1.40;99.90;;;;;;5024115;28;20042;-77
2022/03/06 06:15:09;;;;;;;64.90;40.92;;;1.40;99.90;;;;;;5043548;28;20123;-77
2022/03/06 06:17:37;;;;;;;64.10;39.65;;;1.50;99.90;;;;;;5041465;28;20546;-77
2022/03/06 06:20:07;;;;;;;58.17;37.50;;;1.60;99.90;;;;;;5044893;28;20112;-77
2022/03/06 06:22:36;;;;;;;62.80;39.20;;;1.50;99.90;;;;;;5033557;28;20090;-78
2022/03/06 06:25:05;;;;;;;61.88;39.25;;;1.50;99.90;;;;;;5061805;28;20128;-77
2022/03/06 06:27:32;;;;;;;59.08;38.53;;;1.50;99.90;;;;;;5046020;28;20033;-78
2022/03/06 06:30:00;;;;;;;61.95;40.45;;;1.50;99.90;;;;;;5047334;28;20042;-78
2022/03/06 06:32:27;;;;;;;61.90;41.53;;;1.60;99.90;;;;;;5037915;28;20527;-79
2022/03/06 06:34:55;;;;;;;53.97;36.72;;;1.60;99.90;;;;;;5059843;28;20115;-78
2022/03/06 06:37:23;;;;;;;54.70;35.92;;;1.60;99.90;;;;;;5031037;28;20132;-78
2022/03/06 06:39:52;;;;;;;47.97;32.95;;;1.60;99.90;;;;;;5037101;28;20416;-78
2022/03/06 06:42:19;;;;;;;44.05;30.00;;;1.60;99.90;;;;;;5041308;28;20048;-77
2022/03/06 06:44:47;;;;;;;42.05;27.95;;;1.50;99.90;;;;;;5040733;28;20041;-78
2022/03/06 06:47:14;;;;;;;45.65;30.63;;;1.50;99.90;;;;;;5041665;28;20049;-78
2022/03/06 06:49:42;;;;;;;44.08;29.98;;;1.60;99.90;;;;;;5042798;28;20136;-79
2022/03/06 06:52:09;;;;;;;38.53;26.17;;;1.60;99.90;;;;;;5041684;28;20056;-77
2022/03/06 06:54:37;;;;;;;45.38;29.35;;;1.70;99.90;;;;;;5043153;28;20104;-78
2022/03/06 06:57:06;;;;;;;40.83;28.20;;;1.70;99.90;;;;;;5041102;28;20057;-78
2022/03/06 06:59:34;;;;;;;44.40;28.23;;;1.60;99.90;;;;;;5040194;28;20037;-78
2022/03/06 07:02:01;;;;;;;41.13;27.65;;;1.70;99.90;;;;;;5040569;28;20451;-77
2022/03/06 07:04:29;;;;;;;42.33;27.55;;;1.80;99.90;;;;;;5042275;28;20041;-78
2022/03/06 07:06:57;;;;;;;41.08;28.30;;;2.00;99.90;;;;;;5032510;28;20034;-78
2022/03/06 07:09:24;;;;;;;37.55;25.08;;;2.10;99.90;;;;;;5046299;28;20101;-79
2022/03/06 07:11:52;;;;;;;42.17;27.25;;;2.10;99.90;;;;;;5042156;28;20056;-80
2022/03/06 07:14:21;;;;;;;36.83;24.77;;;2.20;99.90;;;;;;5059113;28;20049;-78
2022/03/06 07:16:49;;;;;;;40.97;27.27;;;2.20;99.90;;;;;;5053059;28;20079;-78
2022/03/06 07:19:19;;;;;;;35.45;22.67;;;2.20;99.90;;;;;;5029077;28;20041;-78
2022/03/06 07:21:47;;;;;;;30.33;21.00;;;2.10;99.90;;;;;;5044114;28;20084;-78
2022/03/06 07:24:15;;;;;;;33.45;22.58;;;1.80;99.90;;;;;;5040844;28;20072;-78
2022/03/06 07:26:44;;;;;;;40.58;25.60;;;1.80;99.90;;;;;;5037678;28;20044;-78
2022/03/06 07:29:11;;;;;;;38.58;24.00;;;1.90;99.90;;;;;;5039406;28;20042;-79
2022/03/06 07:31:40;;;;;;;37.03;25.38;;;2.00;99.90;;;;;;5046192;28;20037;-78
2022/03/06 07:34:08;;;;;;;45.42;27.80;;;2.10;99.90;;;;;;5027587;28;20049;-79
2022/03/06 07:36:36;;;;;;;40.22;27.13;;;2.20;99.90;;;;;;5048829;28;20516;-80
2022/03/06 07:39:03;;;;;;;35.22;24.02;;;2.20;99.90;;;;;;5028692;28;20061;-79
2022/03/06 07:41:31;;;;;;;35.97;25.63;;;2.30;99.90;;;;;;5012601;28;20570;-79
2022/03/06 07:43:59;;;;;;;38.03;25.13;;;2.40;99.90;;;;;;5051518;28;20109;-79
2022/03/06 07:46:27;;;;;;;36.28;24.27;;;2.40;99.90;;;;;;5053187;28;20126;-79
2022/03/06 07:48:57;;;;;;;45.90;32.30;;;2.50;99.90;;;;;;5038915;28;20045;-78
2022/03/06 07:51:25;;;;;;;39.53;27.98;;;2.60;99.90;;;;;;5029521;28;20059;-79
2022/03/06 07:53:52;;;;;;;40.03;25.70;;;2.80;99.90;;;;;;5039791;28;20060;-78
2022/03/06 07:56:20;;;;;;;31.88;22.30;;;2.70;99.90;;;;;;5033806;28;20073;-79
2022/03/06 07:58:48;;;;;;;38.28;25.10;;;2.70;99.90;;;;;;5032274;28;20045;-77
2022/03/06 08:01:16;;;;;;;36.60;24.45;;;2.70;99.90;;;;;;5046129;28;20049;-77
2022/03/06 08:03:44;;;;;;;34.42;24.58;;;2.80;99.90;;;;;;5053370;28;20072;-79
2022/03/06 08:06:13;;;;;;;33.38;23.98;;;2.90;99.90;;;;;;5049790;28;20045;-79
2022/03/06 08:08:41;;;;;;;36.22;24.27;;;3.00;99.90;;;;;;5058393;28;20039;-78
2022/03/06 08:11:08;;;;;;;35.92;24.50;;;3.20;99.90;;;;;;5063774;28;20072;-79
2022/03/06 08:13:36;;;;;;;39.83;26.30;;;3.30;99.90;;;;;;5049135;28;20048;-77
2022/03/06 08:16:03;;;;;;;33.03;23.35;;;3.50;99.90;;;;;;5043584;28;20046;-78
2022/03/06 08:18:31;;;;;;;33.90;22.83;;;3.50;99.90;;;;;;5044337;28;20036;-78
2022/03/06 08:20:58;;;;;;;35.92;23.02;;;3.60;99.90;;;;;;5065065;28;20049;-79
2022/03/06 08:23:27;;;;;;;37.90;24.75;;;3.80;99.90;;;;;;5052951;28;20044;-80
2022/03/06 08:25:55;;;;;;;38.50;25.08;;;3.90;99.90;;;;;;5047496;28;20052;-80
2022/03/06 08:28:22;;;;;;;29.20;20.63;;;3.90;99.90;;;;;;5027087;28;20049;-79
2022/03/06 08:30:50;;;;;;;34.22;21.67;;;4.10;99.90;;;;;;5050759;28;20037;-78
2022/03/06 08:33:18;;;;;;;35.22;23.15;;;4.10;99.90;;;;;;5041320;28;20128;-78
2022/03/06 08:35:45;;;;;;;32.58;20.98;;;4.20;99.90;;;;;;5026769;28;20041;-78
2022/03/06 08:38:13;;;;;;;36.10;23.90;;;4.10;99.90;;;;;;5043702;28;20036;-79
2022/03/06 08:40:42;;;;;;;37.85;23.73;;;3.90;99.90;;;;;;5050028;28;20051;-76
2022/03/06 08:43:09;;;;;;;40.05;25.42;;;3.90;99.90;;;;;;5038074;28;20073;-78
2022/03/06 08:45:37;;;;;;;45.28;29.98;;;4.10;99.90;;;;;;5038595;28;20065;-77
2022/03/06 08:48:05;;;;;;;37.75;25.00;;;4.10;99.90;;;;;;5039573;28;20053;-78
2022/03/06 08:50:33;;;;;;;35.33;24.83;;;4.30;99.90;;;;;;5037279;28;20056;-77
2022/03/06 08:53:01;;;;;;;35.95;24.70;;;4.40;99.90;;;;;;5040340;28;20071;-79
2022/03/06 08:55:28;;;;;;;34.00;24.27;;;4.40;99.90;;;;;;5040551;28;20544;-76
2022/03/06 08:58:00;;;;;;;36.45;25.40;;;4.60;99.90;;;;;;5038764;28;20045;-77
2022/03/06 09:00:28;;;;;;;31.00;21.50;;;4.40;99.90;;;;;;5046793;28;20109;-78
2022/03/06 09:02:55;;;;;;;31.85;22.20;;;4.30;99.90;;;;;;5046099;28;20034;-78
2022/03/06 09:05:23;;;;;;;30.80;19.55;;;4.20;99.90;;;;;;5048850;28;20045;-78
2022/03/06 09:07:50;;;;;;;33.30;20.73;;;4.20;99.90;;;;;;5021362;28;20065;-79
2022/03/06 09:10:18;;;;;;;33.22;21.15;;;4.00;99.90;;;;;;5021112;28;20049;-78
2022/03/06 09:12:46;;;;;;;37.28;23.92;;;3.80;99.90;;;;;;5036695;28;20038;-79
2022/03/06 09:15:15;;;;;;;40.13;22.70;;;4.10;99.90;;;;;;5034737;28;20050;-78
2022/03/06 09:17:43;;;;;;;30.10;18.17;;;4.30;99.90;;;;;;5038852;28;20048;-77
2022/03/06 09:20:12;;;;;;;33.28;20.88;;;4.30;99.90;;;;;;5036553;28;20064;-79
2022/03/06 09:22:39;;;;;;;28.98;16.42;;;4.20;99.90;;;;;;5008073;28;20072;-78
2022/03/06 09:25:07;;;;;;;48.42;25.27;;;4.40;99.90;;;;;;5028010;28;20041;-77
2022/03/06 09:27:35;;;;;;;38.33;20.98;;;4.30;99.90;;;;;;5035229;28;20041;-77
2022/03/06 09:30:03;;;;;;;41.65;23.10;;;4.10;99.90;;;;;;5035769;28;20096;-77
2022/03/06 09:32:32;;;;;;;23.75;14.90;;;4.30;99.90;;;;;;5035797;28;20049;-77
2022/03/06 09:35:00;;;;;;;38.47;21.02;;;4.40;99.90;;;;;;5034249;28;20042;-77
2022/03/06 09:37:27;;;;;;;25.05;16.40;;;4.30;99.90;;;;;;5019600;28;20041;-77
2022/03/06 09:39:56;;;;;;;17.85;13.18;;;4.10;99.90;;;;;;5023422;28;20049;-77
2022/03/06 09:42:24;;;;;;;16.67;11.00;;;4.30;99.90;;;;;;5028885;28;20076;-77
2022/03/06 09:44:51;;;;;;;16.52;11.27;;;4.40;99.90;;;;;;5018126;28;20501;-78
2022/03/06 09:47:19;;;;;;;17.55;11.80;;;4.20;66.00;;;;;;5036262;28;20445;-76
2022/03/06 09:49:49;;;;;;;15.63;10.82;;;4.30;1.00;;;;;;5035615;28;20130;-76
2022/03/06 09:52:16;;;;;;;18.50;12.48;;;4.70;1.00;;;;;;5005287;28;20137;-78
2022/03/06 09:54:44;;;;;;;17.77;12.25;;;4.50;1.00;;;;;;5016793;28;20038;-76
2022/03/06 09:57:17;;;;;;;14.73;10.75;;;4.70;1.00;;;;;;5018728;28;20400;-78
2022/03/06 09:59:45;;;;;;;13.70;9.93;;;4.30;1.00;;;;;;5019383;28;20212;-77
2022/03/06 10:02:14;;;;;;;16.77;10.43;;;4.40;1.00;;;;;;5023308;28;20045;-78
2022/03/06 10:04:42;;;;;;;14.35;10.43;;;4.10;1.00;;;;;;5016506;28;20061;-76
2022/03/06 10:07:13;;;;;;;16.80;11.70;;;4.10;1.00;;;;;;5017378;28;20074;-78
2022/03/06 10:09:46;;;;;;;21.92;14.23;;;4.10;1.00;;;;;;5019704;28;20034;-77
2022/03/06 10:12:22;;;;;;;16.90;11.90;;;4.00;1.00;;;;;;5005465;28;20115;-76
2022/03/06 10:14:51;;;;;;;18.63;12.05;;;4.10;1.00;;;;;;5009621;28;20050;-77
2022/03/06 10:17:19;;;;;;;16.83;11.82;;;4.10;1.00;;;;;;4999252;28;20412;-78
2022/03/06 10:19:49;;;;;;;17.30;12.30;;;4.20;1.00;;;;;;5028397;28;20121;-77
2022/03/06 10:22:21;;;;;;;22.75;14.93;;;4.30;1.00;;;;;;5032658;28;20094;-77
2022/03/06 10:24:50;;;;;;;22.75;13.43;;;4.20;1.00;;;;;;5007254;28;20056;-77
2022/03/06 10:27:38;;;;;;;21.98;13.00;;;4.10;1.00;;;;;;5022452;28;20064;-77
2022/03/06 10:30:28;;;;;;;24.17;14.88;;;4.00;1.00;;;;;;5039471;28;20045;-77
2022/03/06 10:32:57;;;;;;;20.90;13.63;;;4.00;1.00;;;;;;5007445;28;20095;-78
2022/03/06 10:35:33;;;;;;;24.55;15.20;;;3.70;1.00;;;;;;5033752;28;20068;-77
2022/03/06 10:38:17;;;;;;;24.25;14.38;;;3.90;1.00;;;;;;5034698;28;20037;-77
2022/03/06 10:40:44;;;;;;;33.42;18.83;;;3.80;1.00;;;;;;5020128;28;20084;-77
2022/03/06 10:43:20;;;;;;;30.38;17.85;;;3.70;1.00;;;;;;5011992;28;20045;-77
2022/03/06 10:45:48;;;;;;;;;;;4.10;1.00;;;;;;5034139;28;20038;-76
2022/03/06 10:48:16;;;;;;;25.98;16.35;;;4.20;1.00;;;;;;5033902;28;20281;-76
2022/03/06 10:50:44;;;;;;;30.92;18.85;;;4.50;99.90;;;;;;5033058;28;20053;-77
2022/03/06 10:53:21;;;;;;;21.17;13.95;;;4.70;99.90;;;;;;5036041;28;20128;-77
2022/03/06 10:55:48;;;;;;;27.10;17.25;;;4.90;99.90;;;;;;5022258;28;20156;-77
2022/03/06 10:58:16;;;;;;;30.35;18.67;;;4.80;99.90;;;;;;5035027;28;20392;-77
2022/03/06 11:00:44;;;;;;;32.17;20.25;;;4.50;99.90;;;;;;5041757;28;20072;-77
2022/03/06 11:03:13;;;;;;;27.05;17.10;;;4.50;99.90;;;;;;5043135;28;20046;-78
2022/03/06 11:05:45;;;;;;;34.08;20.98;;;4.50;99.90;;;;;;5038582;28;20061;-77
2022/03/06 11:08:14;;;;;;;28.23;16.48;;;4.40;99.90;;;;;;5034805;28;20549;-77
2022/03/06 11:10:44;;;;;;;26.00;15.52;;;4.30;99.90;;;;;;5022142;28;20534;-77
2022/03/06 11:13:14;;;;;;;30.85;18.48;;;4.50;99.90;;;;;;5034033;28;20041;-77
2022/03/06 11:15:42;;;;;;;30.33;17.45;;;4.50;99.90;;;;;;5034500;28;20053;-77
2022/03/06 11:18:11;;;;;;;30.17;16.85;;;4.50;99.90;;;;;;5034345;28;20092;-76
2022/03/06 11:20:41;;;;;;;18.13;12.40;;;4.30;99.90;;;;;;5017570;28;20084;-78
2022/03/06 11:23:22;;;;;;;25.08;15.25;;;3.90;99.90;;;;;;5040788;28;20037;-78
2022/03/06 11:26:18;;;;;;;20.52;14.02;;;3.90;99.90;;;;;;5036233;28;20103;-78
2022/03/06 11:29:03;;;;;;;28.50;18.35;;;3.90;99.90;;;;;;5001529;28;20585;-78
2022/03/06 11:31:44;;;;;;;26.48;15.95;;;4.10;99.90;;;;;;5018557;28;20045;-78
2022/03/06 11:34:13;;;;;;;22.48;14.50;;;4.20;99.90;;;;;;5035140;28;20065;-78
2022/03/06 11:36:47;;;;;;;24.98;15.95;;;4.40;99.90;;;;;;5018096;28;20045;-78
2022/03/06 11:39:16;;;;;;;24.33;16.10;;;4.10;99.90;;;;;;5035098;28;20058;-79
2022/03/06 11:41:45;;;;;;;28.63;17.05;;;4.20;99.90;;;;;;5036052;28;20125;-78
2022/03/06 11:44:34;;;;;;;24.42;16.98;;;4.20;99.90;;;;;;5035381;28;20116;-78
2022/03/06 11:47:02;;;;;;;21.00;14.32;;;4.40;99.90;;;;;;5023118;28;20050;-78
2022/03/06 11:49:36;;;;;;;20.77;13.63;;;4.30;99.90;;;;;;5036545;28;20042;-78
2022/03/06 11:52:27;;;;;;;27.13;16.63;;;4.10;99.90;;;;;;5035599;28;20555;-78
2022/03/06 11:54:55;;;;;;;29.90;17.85;;;3.90;99.90;;;;;;5035265;28;20041;-78
2022/03/06 11:57:38;;;;;;;27.73;17.55;;;4.00;1.00;;;;;;5034836;28;20044;-78
2022/03/06 12:00:16;;;;;;;36.83;22.40;;;4.10;1.00;;;;;;5035706;28;20499;-77
2022/03/06 12:02:47;;;;;;;26.77;16.92;;;3.90;1.00;;;;;;5018031;28;20046;-78
2022/03/06 12:05:16;;;;;;;25.23;16.70;;;3.90;1.00;;;;;;5015973;28;20140;-76
2022/03/06 12:07:47;;;;;;;24.23;15.63;;;3.90;1.00;;;;;;5035206;28;20056;-77
2022/03/06 12:10:16;;;;;;;39.47;24.25;;;3.80;1.00;;;;;;5036505;28;20048;-79
2022/03/06 12:12:57;;;;;;;29.35;19.95;;;3.60;1.00;;;;;;5037022;28;20048;-78
2022/03/06 12:15:27;;;;;;;30.27;21.98;;;4.10;1.00;;;;;;5018319;28;20050;-78
2022/03/06 12:18:02;;;;;;;30.10;20.73;;;4.40;1.00;;;;;;5020598;28;20088;-77
2022/03/06 12:20:40;;;;;;;34.33;24.23;;;4.80;1.00;;;;;;5021047;28;20053;-79
2022/03/06 12:23:20;;;;;;;29.45;20.35;;;5.10;1.00;;;;;;5022060;28;20054;-77
2022/03/06 12:25:52;;;;;;;29.58;20.13;;;5.10;1.00;;;;;;5041719;28;20393;-79
2022/03/06 12:28:27;;;;;;;17.58;13.10;;;5.00;1.00;;;;;;5040262;28;20530;-78
2022/03/06 12:30:56;;;;;;;22.25;15.95;;;4.50;1.00;;;;;;5038974;28;20049;-78
2022/03/06 12:33:34;;;;;;;22.55;14.00;;;4.10;1.00;;;;;;5022384;28;20069;-78
2022/03/06 12:36:23;;;;;;;23.80;16.15;;;4.00;1.00;;;;;;5039620;28;20105;-78
2022/03/06 12:39:13;;;;;;;26.33;17.77;;;3.90;1.00;;;;;;5040508;28;20073;-76
2022/03/06 12:41:45;;;;;;;32.58;21.95;;;3.80;1.00;;;;;;5036497;28;20088;-78
2022/03/06 12:44:25;;;;;;;28.90;19.50;;;3.70;1.00;;;;;;5020194;28;20053;-78
2022/03/06 12:46:53;;;;;;;28.30;19.17;;;3.50;1.00;;;;;;5039448;28;20042;-77
2022/03/06 12:49:23;;;;;;;25.67;17.52;;;3.50;99.90;;;;;;5037286;28;20049;-79
2022/03/06 12:51:53;;;;;;;32.78;22.98;;;3.40;35.40;;;;;;5019214;28;20084;-79